Time;durP1;ratioP1;P1;durP2;ratioP2;P2;SDS_P1;SDS_P2;PMS_P1;PMS_P2;Temp;Humidity;BMP_temperature;BMP_pressure;BME280_temperature;BME280_humidity;BME280_pressure;Samples;Min_cycle;Max_cycle;Signal;HPM_P1;HPM_P2
2023/05/03 00:00:29;;;;;;;23.30;14.23;;;13.20;79.50;;;;;;4808791;29;20046;-85
2023/05/03 00:02:56;;;;;;;26.35;15.70;;;13.20;79.60;;;;;;4812032;29;20714;-84
2023/05/03 00:05:25;;;;;;;22.67;13.60;;;13.20;79.50;;;;;;4808310;29;20058;-84
2023/05/03 00:07:52;;;;;;;26.65;16.05;;;13.20;79.50;;;;;;4808101;29;20054;-85
2023/05/03 00:10:19;;;;;;;23.35;13.50;;;13.20;79.40;;;;;;4793453;29;20137;-84
2023/05/03 00:12:46;;;;;;;27.50;16.27;;;13.20;79.40;;;;;;4823145;29;20046;-85
2023/05/03 00:15:13;;;;;;;25.80;14.52;;;13.20;79.40;;;;;;4823511;29;20129;-85
2023/05/03 00:17:40;;;;;;;22.53;13.77;;;13.20;79.20;;;;;;4805910;29;20055;-84
2023/05/03 00:20:08;;;;;;;24.27;14.57;;;13.20;79.20;;;;;;4809446;29;20053;-83
2023/05/03 00:22:35;;;;;;;24.38;14.65;;;13.10;79.30;;;;;;4808045;29;20057;-84
2023/05/03 00:25:03;;;;;;;24.13;14.98;;;13.10;79.30;;;;;;4814470;29;20509;-85
2023/05/03 00:27:30;;;;;;;25.40;16.23;;;13.10;79.30;;;;;;4823487;29;20080;-84
2023/05/03 00:29:57;;;;;;;24.07;14.50;;;13.10;79.30;;;;;;4823456;29;20050;-86
2023/05/03 00:32:24;;;;;;;23.95;14.43;;;13.10;79.20;;;;;;4807837;29;20049;-85
2023/05/03 00:34:56;;;;;;;25.75;15.55;;;13.10;79.30;;;;;;4808077;29;20050;-85
2023/05/03 00:37:24;;;;;;;22.27;14.10;;;13.10;79.30;;;;;;4806916;29;20141;-85
2023/05/03 00:39:51;;;;;;;23.40;14.43;;;13.10;79.30;;;;;;4808103;29;20084;-84
2023/05/03 00:42:18;;;;;;;25.10;15.10;;;13.10;79.40;;;;;;4808214;29;20581;-85
2023/05/03 00:44:45;;;;;;;23.92;13.32;;;13.10;79.50;;;;;;4790636;29;20042;-84
2023/05/03 00:47:12;;;;;;;26.60;15.15;;;13.10;79.50;;;;;;4823268;29;20042;-85
2023/05/03 00:49:40;;;;;;;24.10;14.73;;;13.00;79.60;;;;;;4787869;29;20047;-85
2023/05/03 00:52:08;;;;;;;27.27;14.48;;;13.00;79.50;;;;;;4823274;29;20459;-85
2023/05/03 00:54:36;;;;;;;22.10;14.03;;;13.00;79.40;;;;;;4808105;29;20206;-85
2023/05/03 00:57:04;;;;;;;22.73;14.13;;;13.10;79.40;;;;;;4822956;29;20050;-84
2023/05/03 00:59:33;;;;;;;24.45;14.30;;;13.00;79.30;;;;;;4822405;29;20137;-84
2023/05/03 01:02:00;;;;;;;21.50;12.55;;;13.00;79.30;;;;;;4806574;29;20141;-84
2023/05/03 01:04:28;;;;;;;22.52;13.45;;;13.00;79.30;;;;;;4822610;29;20455;-84
2023/05/03 01:07:16;;;;;;;22.23;13.07;;;13.00;79.30;;;;;;4808707;29;20038;-84
2023/05/03 01:10:07;;;;;;;21.40;13.55;;;13.00;79.10;;;;;;4800524;29;20083;-84
2023/05/03 01:12:47;;;;;;;24.20;14.95;;;13.10;79.20;;;;;;4807784;29;20544;-84
2023/05/03 01:15:42;;;;;;;24.95;14.45;;;13.00;79.30;;;;;;4807815;29;20038;-84
2023/05/03 01:18:15;;;;;;;27.02;15.65;;;13.10;79.40;;;;;;4822119;29;20133;-85
2023/05/03 01:20:45;;;;;;;26.07;15.27;;;13.00;79.40;;;;;;4792883;29;20075;-84
2023/05/03 01:23:18;;;;;;;26.52;15.98;;;13.00;79.60;;;;;;4807697;29;20046;-85
2023/05/03 01:25:45;;;;;;;27.33;15.85;;;12.80;80.10;;;;;;4799372;29;20106;-84
2023/05/03 01:28:12;;;;;;;24.55;14.18;;;12.80;80.30;;;;;;4822565;29;20053;-85
2023/05/03 01:30:40;;;;;;;27.13;16.45;;;12.70;80.30;;;;;;4792651;29;20465;-84
2023/05/03 01:33:35;;;;;;;26.77;15.80;;;12.80;80.30;;;;;;4792520;29;20042;-85
2023/05/03 01:36:42;;;;;;;26.67;15.45;;;12.70;80.40;;;;;;4791021;29;20137;-85
2023/05/03 01:39:43;;;;;;;24.15;15.43;;;12.60;80.50;;;;;;4760638;30;20590;-85
2023/05/03 01:42:11;;;;;;;23.05;14.98;;;12.70;80.50;;;;;;4767469;30;20051;-85
2023/05/03 01:44:39;;;;;;;25.70;16.38;;;12.70;80.40;;;;;;4807616;29;20142;-85
2023/05/03 01:47:07;;;;;;;26.40;15.43;;;12.70;80.20;;;;;;4792607;29;20076;-84
2023/05/03 01:49:34;;;;;;;24.25;15.18;;;12.70;80.10;;;;;;4807524;29;20088;-84
2023/05/03 01:52:01;;;;;;;27.38;15.98;;;12.70;80.10;;;;;;4807008;29;20149;-84
2023/05/03 01:54:28;;;;;;;24.45;14.77;;;12.70;79.90;;;;;;4804196;29;20051;-85
2023/05/03 01:56:56;;;;;;;24.52;14.95;;;12.70;79.70;;;;;;4822394;29;20077;-85
2023/05/03 01:59:23;;;;;;;25.23;14.87;;;12.70;79.80;;;;;;4804867;29;20058;-84
2023/05/03 02:01:50;;;;;;;23.08;13.23;;;12.70;79.50;;;;;;4807505;29;20058;-85
2023/05/03 02:04:17;;;;;;;25.67;13.63;;;12.70;79.60;;;;;;4822480;29;20081;-84
2023/05/03 02:06:44;;;;;;;25.45;15.02;;;12.80;79.60;;;;;;4808557;29;20142;-84
2023/05/03 02:09:12;;;;;;;24.98;14.98;;;12.80;79.50;;;;;;4807242;29;20050;-85
2023/05/03 02:11:39;;;;;;;26.63;15.17;;;12.80;79.40;;;;;;4792315;29;20042;-85
2023/05/03 02:14:06;;;;;;;28.48;15.95;;;12.80;79.50;;;;;;4823877;29;20459;-85
2023/05/03 02:16:33;;;;;;;31.02;16.60;;;12.80;79.80;;;;;;4825444;29;20478;-84
2023/05/03 02:19:00;;;;;;;27.65;16.63;;;12.70;79.90;;;;;;4810387;29;20084;-84
2023/05/03 02:21:27;;;;;;;29.83;17.38;;;12.70;79.70;;;;;;4825540;29;20151;-84
2023/05/03 02:23:54;;;;;;;28.93;17.43;;;12.60;79.80;;;;;;4795297;29;20133;-85
2023/05/03 02:26:21;;;;;;;34.00;19.58;;;12.60;79.80;;;;;;4794894;29;20053;-84
2023/05/03 02:28:48;;;;;;;35.30;20.13;;;12.60;80.00;;;;;;4794680;29;20134;-84
2023/05/03 02:31:15;;;;;;;37.85;20.83;;;12.50;80.40;;;;;;4810088;29;20050;-85
2023/05/03 02:33:43;;;;;;;36.75;21.35;;;12.50;80.70;;;;;;4810013;29;20055;-84
2023/05/03 02:36:10;;;;;;;35.77;21.07;;;12.30;81.30;;;;;;4795216;29;20064;-84
2023/05/03 02:38:37;;;;;;;37.42;20.50;;;12.20;81.70;;;;;;4825155;29;20493;-84
2023/05/03 02:41:04;;;;;;;36.13;20.92;;;12.20;82.00;;;;;;4825104;29;20065;-85
2023/05/03 02:43:31;;;;;;;39.95;22.77;;;12.10;82.20;;;;;;4810076;29;20058;-84
2023/05/03 02:45:58;;;;;;;36.60;20.58;;;12.10;82.10;;;;;;4825246;29;20054;-85
2023/05/03 02:48:25;;;;;;;34.17;20.83;;;12.10;82.10;;;;;;4810343;29;20093;-85
2023/05/03 02:50:53;;;;;;;29.63;17.73;;;12.20;81.90;;;;;;4793142;29;20477;-85
2023/05/03 02:53:20;;;;;;;32.10;19.25;;;12.30;81.50;;;;;;4812249;29;20048;-85
2023/05/03 02:55:49;;;;;;;34.78;19.60;;;12.30;81.60;;;;;;4807259;29;20210;-85
2023/05/03 02:58:16;;;;;;;32.65;18.52;;;12.30;81.40;;;;;;4792071;29;20058;-84
2023/05/03 03:00:43;;;;;;;31.20;17.63;;;12.30;81.30;;;;;;4806097;29;20057;-85
2023/05/03 03:03:11;;;;;;;27.83;17.98;;;12.40;81.30;;;;;;4824882;29;20062;-84
2023/05/03 03:05:39;;;;;;;30.17;18.45;;;12.50;81.30;;;;;;4809664;29;20047;-85
2023/05/03 03:08:06;;;;;;;27.23;17.23;;;12.50;81.20;;;;;;4813659;29;20138;-84
2023/05/03 03:10:33;;;;;;;28.70;17.77;;;12.50;81.20;;;;;;4809487;29;20038;-86
2023/05/03 03:13:00;;;;;;;34.03;20.23;;;12.50;81.10;;;;;;4814735;29;20050;-85
2023/05/03 03:15:33;;;;;;;31.80;17.85;;;12.50;80.90;;;;;;4809192;29;20047;-85
2023/05/03 03:18:01;;;;;;;31.23;17.40;;;12.50;81.00;;;;;;4824556;29;20050;-83
2023/05/03 03:20:28;;;;;;;30.40;18.10;;;12.50;80.90;;;;;;4824458;29;20129;-84
2023/05/03 03:22:56;;;;;;;30.38;17.35;;;12.50;80.90;;;;;;4824407;29;20069;-85
2023/05/03 03:25:23;;;;;;;27.53;17.07;;;12.50;80.80;;;;;;4808133;29;20045;-84
2023/05/03 03:27:51;;;;;;;29.08;16.90;;;12.50;80.90;;;;;;4824158;29;20052;-84
2023/05/03 03:30:18;;;;;;;29.23;16.90;;;12.40;81.00;;;;;;4794203;29;20119;-84
2023/05/03 03:32:55;;;;;;;30.00;18.15;;;12.30;81.30;;;;;;4809186;29;20052;-85
2023/05/03 03:35:30;;;;;;;31.02;18.38;;;12.30;81.40;;;;;;4795116;29;20061;-84
2023/05/03 03:38:00;;;;;;;29.40;18.23;;;12.30;81.40;;;;;;4823970;29;20081;-84
2023/05/03 03:40:27;;;;;;;32.90;19.48;;;12.30;81.50;;;;;;4792828;29;20054;-84
2023/05/03 03:42:55;;;;;;;29.38;18.17;;;12.30;81.40;;;;;;4808841;29;20054;-84
2023/05/03 03:45:24;;;;;;;32.35;18.67;;;12.30;81.50;;;;;;4815548;29;20065;-87
2023/05/03 03:47:52;;;;;;;33.85;19.05;;;12.40;81.40;;;;;;4795066;29;20070;-87
2023/05/03 03:50:21;;;;;;;28.23;16.57;;;12.40;81.30;;;;;;4809426;29;20077;-85
2023/05/03 03:52:48;;;;;;;29.13;16.80;;;12.40;81.10;;;;;;4815166;29;20054;-84
2023/05/03 03:55:15;;;;;;;30.85;17.10;;;12.50;81.10;;;;;;4802284;29;20528;-85
2023/05/03 03:57:46;;;;;;;31.48;18.80;;;12.50;80.90;;;;;;4805858;29;20420;-84
2023/05/03 04:00:13;;;;;;;27.60;17.13;;;12.50;80.90;;;;;;4795774;29;20061;-84
2023/05/03 04:02:46;;;;;;;31.70;18.20;;;12.50;80.80;;;;;;4808030;29;20047;-83
2023/05/03 04:05:16;;;;;;;30.23;17.67;;;12.50;81.00;;;;;;4820841;29;20077;-83
2023/05/03 04:07:45;;;;;;;32.03;17.48;;;12.50;81.10;;;;;;4819367;29;20053;-83
2023/05/03 04:10:13;;;;;;;33.42;18.70;;;12.40;81.50;;;;;;4793191;29;20394;-83
2023/05/03 04:12:40;;;;;;;34.28;19.15;;;12.40;81.50;;;;;;4807986;29;20106;-83
2023/05/03 04:15:08;;;;;;;33.10;19.37;;;12.30;81.70;;;;;;4824091;29;20561;-83
2023/05/03 04:17:36;;;;;;;34.38;19.73;;;12.40;81.90;;;;;;4792333;29;20043;-84
2023/05/03 04:20:09;;;;;;;32.25;19.05;;;12.30;81.90;;;;;;4808069;29;20051;-83
2023/05/03 04:22:44;;;;;;;31.70;18.48;;;12.20;82.10;;;;;;4823196;29;20054;-84
2023/05/03 04:25:15;;;;;;;34.42;20.05;;;12.10;82.40;;;;;;4793018;29;20053;-83
2023/05/03 04:27:49;;;;;;;33.77;19.77;;;12.00;82.60;;;;;;4790698;29;20046;-84
2023/05/03 04:30:16;;;;;;;39.03;24.23;;;12.00;83.00;;;;;;4792977;29;20042;-83
2023/05/03 04:32:47;;;;;;;44.45;29.15;;;12.00;82.90;;;;;;4807362;29;20070;-84
2023/05/03 04:35:15;;;;;;;39.33;21.85;;;12.00;83.30;;;;;;4807650;29;20053;-83
2023/05/03 04:37:45;;;;;;;37.55;20.80;;;11.90;83.30;;;;;;4818935;29;20047;-83
2023/05/03 04:40:18;;;;;;;37.03;22.20;;;12.00;83.40;;;;;;4807633;29;20057;-83
2023/05/03 04:42:51;;;;;;;42.10;24.60;;;12.00;83.20;;;;;;4804440;29;20596;-83
2023/05/03 04:45:19;;;;;;;31.45;19.17;;;12.10;83.00;;;;;;4807426;29;20141;-83
2023/05/03 04:47:48;;;;;;;35.85;20.15;;;12.10;82.60;;;;;;4822428;29;20042;-82
2023/05/03 04:50:15;;;;;;;37.70;21.20;;;12.20;82.50;;;;;;4807301;29;20076;-83
2023/05/03 04:52:46;;;;;;;36.43;21.00;;;12.20;82.70;;;;;;4822487;29;20501;-82
2023/05/03 04:55:14;;;;;;;33.10;20.15;;;12.20;82.80;;;;;;4790571;29;20422;-83
2023/05/03 04:57:41;;;;;;;33.78;19.50;;;12.20;83.00;;;;;;4807536;29;20050;-83
2023/05/03 05:00:11;;;;;;;36.30;19.95;;;12.20;82.80;;;;;;4807473;29;20054;-83
2023/05/03 05:02:43;;;;;;;34.75;18.67;;;12.20;82.60;;;;;;4806092;29;20046;-83
2023/05/03 05:05:10;;;;;;;36.33;19.90;;;12.30;82.60;;;;;;4822844;29;20585;-83
2023/05/03 05:07:37;;;;;;;38.08;21.27;;;12.20;82.80;;;;;;4792420;29;20072;-83
2023/05/03 05:10:05;;;;;;;35.65;20.50;;;12.20;83.00;;;;;;4822579;29;20145;-83
2023/05/03 05:12:32;;;;;;;37.08;21.05;;;12.20;83.00;;;;;;4792391;29;20038;-83
2023/05/03 05:15:03;;;;;;;41.05;22.58;;;12.20;82.90;;;;;;4807347;29;20046;-83
2023/05/03 05:17:30;;;;;;;37.80;20.50;;;12.20;83.00;;;;;;4792342;29;20469;-84
2023/05/03 05:19:59;;;;;;;39.17;20.33;;;12.30;82.80;;;;;;4822753;29;20054;-84
2023/05/03 05:22:28;;;;;;;41.25;22.60;;;12.40;82.80;;;;;;4807686;29;20103;-84
2023/05/03 05:24:58;;;;;;;38.55;20.63;;;12.40;82.90;;;;;;4807991;29;20042;-83
2023/05/03 05:27:26;;;;;;;36.47;20.13;;;12.40;82.60;;;;;;4807150;29;20137;-83
2023/05/03 05:29:55;;;;;;;35.87;20.07;;;12.50;82.40;;;;;;4793590;29;20047;-84
2023/05/03 05:32:22;;;;;;;36.55;20.85;;;12.40;82.40;;;;;;4822630;29;20057;-83
2023/05/03 05:34:54;;;;;;;40.65;22.10;;;12.50;82.30;;;;;;4792262;29;20115;-83
2023/05/03 05:37:24;;;;;;;38.53;21.73;;;12.50;82.40;;;;;;4821947;29;20046;-83
2023/05/03 05:39:52;;;;;;;40.88;21.77;;;12.50;82.30;;;;;;4792211;29;20450;-84
2023/05/03 05:42:22;;;;;;;38.43;22.53;;;12.50;82.10;;;;;;4792605;29;20417;-83
2023/05/03 05:44:51;;;;;;;40.95;22.15;;;12.50;82.40;;;;;;4822285;29;20449;-84
2023/05/03 05:47:20;;;;;;;48.80;25.63;;;12.50;82.40;;;;;;4804331;29;20047;-83
2023/05/03 05:49:50;;;;;;;42.35;24.45;;;12.40;82.30;;;;;;4825353;29;20050;-85
2023/05/03 05:52:17;;;;;;;49.35;27.20;;;12.30;82.80;;;;;;4825564;29;20516;-84
2023/05/03 05:54:44;;;;;;;43.60;23.63;;;12.30;82.60;;;;;;4810962;29;20044;-83
2023/05/03 05:57:12;;;;;;;45.25;25.08;;;12.20;82.60;;;;;;4810367;29;20051;-83
2023/05/03 05:59:40;;;;;;;41.35;24.25;;;12.20;83.00;;;;;;4809194;29;20057;-83
2023/05/03 06:02:15;;;;;;;43.17;25.60;;;12.10;83.00;;;;;;4825134;29;20050;-84
2023/05/03 06:04:45;;;;;;;43.38;24.65;;;12.10;83.00;;;;;;4801621;29;20058;-83
2023/05/03 06:07:15;;;;;;;45.13;24.77;;;12.20;83.00;;;;;;4810069;29;20141;-84
2023/05/03 06:09:42;;;;;;;44.88;24.95;;;12.30;82.60;;;;;;4808536;29;20080;-83
2023/05/03 06:12:10;;;;;;;44.72;24.92;;;12.30;82.70;;;;;;4810002;29;20066;-83
2023/05/03 06:14:40;;;;;;;48.35;27.35;;;12.20;82.80;;;;;;4808067;29;20046;-83
2023/05/03 06:17:28;;;;;;;45.20;26.38;;;12.20;82.70;;;;;;4825528;29;20054;-82
2023/05/03 06:19:55;;;;;;;47.13;26.53;;;12.20;82.80;;;;;;4795292;29;20513;-84
2023/05/03 06:22:24;;;;;;;47.47;26.35;;;12.30;82.60;;;;;;4795203;29;20050;-83
2023/05/03 06:24:52;;;;;;;48.45;27.85;;;12.20;83.00;;;;;;4795409;29;20050;-83
2023/05/03 06:27:19;;;;;;;51.30;27.45;;;12.10;83.00;;;;;;4825358;29;20038;-84
2023/05/03 06:29:48;;;;;;;56.95;30.40;;;12.10;83.10;;;;;;4816280;29;20042;-83
2023/05/03 06:32:15;;;;;;;37.40;21.50;;;12.10;83.30;;;;;;4795120;29;20053;-84
2023/05/03 06:34:43;;;;;;;33.08;19.67;;;12.00;82.90;;;;;;4825217;29;20068;-83
2023/05/03 06:37:11;;;;;;;31.23;19.70;;;11.70;83.10;;;;;;4809895;29;20555;-83
2023/05/03 06:39:38;;;;;;;34.17;21.05;;;11.60;83.20;;;;;;4806060;29;20050;-82
2023/05/03 06:42:06;;;;;;;34.13;21.63;;;11.50;83.70;;;;;;4825045;29;20054;-83
2023/05/03 06:44:37;;;;;;;36.60;22.07;;;11.50;83.80;;;;;;4824866;29;20068;-83
2023/05/03 06:47:04;;;;;;;38.05;22.63;;;11.30;84.40;;;;;;4794962;29;20436;-83
2023/05/03 06:49:31;;;;;;;34.00;20.40;;;11.30;84.80;;;;;;4809937;29;20046;-82
2023/05/03 06:51:59;;;;;;;30.45;19.48;;;11.30;84.70;;;;;;4807826;29;20103;-83
2023/05/03 06:54:26;;;;;;;35.42;21.15;;;11.30;84.20;;;;;;4794754;29;20490;-84
2023/05/03 06:56:53;;;;;;;29.33;18.90;;;11.10;84.40;;;;;;4809711;29;20054;-83
2023/05/03 06:59:20;;;;;;;33.10;20.13;;;11.10;84.30;;;;;;4809774;29;20133;-82
2023/05/03 07:01:47;;;;;;;32.45;20.65;;;11.00;84.70;;;;;;4809586;29;20459;-83
2023/05/03 07:04:14;;;;;;;29.45;17.70;;;11.00;84.70;;;;;;4794507;29;20054;-83
2023/05/03 07:06:41;;;;;;;33.00;15.77;;;10.90;84.60;;;;;;4824565;29;20043;-83
2023/05/03 07:09:22;;;;;;;26.47;15.27;;;10.90;84.10;;;;;;4824580;29;20065;-83
2023/05/03 07:12:07;;;;;;;26.60;16.30;;;10.80;84.00;;;;;;4822108;29;20050;-83
2023/05/03 07:14:35;;;;;;;28.52;15.50;;;10.80;84.50;;;;;;4794293;29;20110;-83
2023/05/03 07:17:01;;;;;;;26.05;13.95;;;10.70;84.40;;;;;;4824725;29;20054;-83
2023/05/03 07:19:29;;;;;;;29.27;15.60;;;10.70;84.00;;;;;;4809294;29;20123;-82
2023/05/03 07:21:56;;;;;;;24.87;11.97;;;10.70;83.90;;;;;;4824171;29;20567;-83
2023/05/03 07:24:26;;;;;;;23.15;13.00;;;10.60;84.00;;;;;;4794002;29;20146;-83
2023/05/03 07:26:53;;;;;;;26.25;12.40;;;10.60;84.10;;;;;;4794027;29;20078;-84
2023/05/03 07:29:20;;;;;;;25.90;13.10;;;10.60;84.20;;;;;;4794065;29;20078;-83
2023/05/03 07:31:47;;;;;;;22.73;11.07;;;10.60;84.20;;;;;;4809176;29;20394;-83
2023/05/03 07:34:17;;;;;;;21.20;9.83;;;10.60;83.80;;;;;;4816365;29;20103;-83
2023/05/03 07:36:44;;;;;;;18.40;9.55;;;10.50;83.30;;;;;;4794195;29;20046;-83
2023/05/03 07:39:11;;;;;;;20.75;10.25;;;10.50;84.00;;;;;;4823840;29;20069;-82
2023/05/03 07:41:39;;;;;;;21.90;10.35;;;10.50;83.90;;;;;;4823976;29;20497;-83
2023/05/03 07:44:06;;;;;;;24.67;10.98;;;10.50;83.90;;;;;;4823874;29;20148;-83
2023/05/03 07:46:34;;;;;;;25.77;12.67;;;10.50;83.90;;;;;;4808760;29;20467;-83
2023/05/03 07:49:05;;;;;;;28.75;12.15;;;10.40;84.50;;;;;;4808724;29;20049;-83
2023/05/03 07:51:35;;;;;;;22.95;12.70;;;10.50;84.20;;;;;;4793949;29;20042;-82
2023/05/03 07:54:03;;;;;;;23.52;11.63;;;10.50;84.40;;;;;;4794072;29;20061;-84
2023/05/03 07:56:30;;;;;;;19.30;10.70;;;10.50;84.40;;;;;;4808779;29;20042;-83
2023/05/03 07:58:57;;;;;;;21.43;10.80;;;10.50;84.10;;;;;;4796779;29;20050;-83
2023/05/03 08:01:36;;;;;;;21.08;10.85;;;10.50;83.80;;;;;;4794907;29;20054;-83
2023/05/03 08:04:03;;;;;;;21.83;12.52;;;10.70;84.00;;;;;;4808692;29;20137;-84
2023/05/03 08:06:32;;;;;;;27.77;14.27;;;10.60;84.30;;;;;;4805605;29;20047;-82
2023/05/03 08:08:59;;;;;;;29.20;13.50;;;10.70;84.50;;;;;;4819688;29;20516;-83
2023/05/03 08:11:27;;;;;;;23.07;11.47;;;10.80;84.10;;;;;;4814877;29;20054;-83
2023/05/03 08:13:55;;;;;;;24.05;11.90;;;10.80;83.70;;;;;;4824702;29;20099;-83
2023/05/03 08:16:22;;;;;;;24.85;12.90;;;10.80;83.50;;;;;;4808272;29;20559;-83
2023/05/03 08:18:50;;;;;;;22.00;13.23;;;10.80;83.70;;;;;;4793610;29;20561;-82
2023/05/03 08:21:17;;;;;;;24.63;12.90;;;10.90;83.40;;;;;;4808131;29;20513;-83
2023/05/03 08:23:45;;;;;;;22.07;12.10;;;10.90;83.10;;;;;;4823497;29;20413;-83
2023/05/03 08:26:13;;;;;;;21.92;12.10;;;11.00;83.00;;;;;;4793381;29;20078;-83
2023/05/03 08:28:41;;;;;;;21.95;12.32;;;10.90;83.20;;;;;;4821221;29;20050;-83
2023/05/03 08:31:08;;;;;;;22.05;12.70;;;10.90;83.10;;;;;;4808111;29;20466;-83
2023/05/03 08:33:36;;;;;;;22.98;13.02;;;10.90;83.10;;;;;;4791905;29;20053;-83
2023/05/03 08:36:03;;;;;;;20.50;11.17;;;11.00;83.20;;;;;;4808267;29;20053;-82
2023/05/03 08:38:31;;;;;;;19.85;10.32;;;10.90;83.00;;;;;;4822924;29;20058;-83
2023/05/03 08:41:18;;;;;;;22.05;11.50;;;10.80;82.90;;;;;;4823225;29;20054;-83
2023/05/03 08:43:49;;;;;;;25.58;13.38;;;10.80;83.20;;;;;;4808505;29;20046;-83
2023/05/03 08:46:17;;;;;;;25.42;12.55;;;10.80;83.50;;;;;;4808006;29;20421;-83
2023/05/03 08:48:47;;;;;;;27.57;13.07;;;10.90;83.40;;;;;;4795157;29;20046;-83
2023/05/03 08:51:18;;;;;;;28.17;13.95;;;11.00;83.10;;;;;;4824276;29;20106;-83
2023/05/03 08:53:45;;;;;;;25.50;12.95;;;11.00;83.20;;;;;;4792715;29;20505;-83
2023/05/03 08:56:23;;;;;;;23.17;10.98;;;11.00;83.00;;;;;;4824330;29;20042;-83
2023/05/03 08:58:50;;;;;;;25.92;12.27;;;10.90;82.80;;;;;;4807955;29;20053;-83
2023/05/03 09:01:19;;;;;;;21.57;11.07;;;10.80;83.30;;;;;;4792736;29;20077;-82
2023/05/03 09:03:50;;;;;;;20.52;10.60;;;10.90;83.40;;;;;;4822840;29;20095;-83
2023/05/03 09:06:25;;;;;;;22.75;10.35;;;10.80;83.30;;;;;;4807617;29;20573;-83
2023/05/03 09:08:53;;;;;;;22.60;11.13;;;10.90;83.20;;;;;;4822428;29;20107;-83
2023/05/03 09:11:21;;;;;;;22.52;12.18;;;10.90;82.80;;;;;;4792464;29;20046;-83
2023/05/03 09:13:50;;;;;;;22.93;11.03;;;10.90;83.00;;;;;;4807664;29;20102;-83
2023/05/03 09:16:26;;;;;;;24.83;11.82;;;10.80;83.30;;;;;;4807630;29;20103;-83
2023/05/03 09:19:02;;;;;;;26.65;12.68;;;11.00;83.50;;;;;;4807248;29;20050;-83
2023/05/03 09:21:32;;;;;;;29.67;13.80;;;11.00;83.50;;;;;;4807793;29;20536;-83
2023/05/03 09:24:00;;;;;;;26.42;13.40;;;11.00;83.60;;;;;;4794457;29;20552;-83
2023/05/03 09:26:31;;;;;;;23.10;12.93;;;11.00;83.60;;;;;;4796188;29;20509;-83
2023/05/03 09:29:02;;;;;;;27.98;14.52;;;11.00;83.40;;;;;;4811240;29;20058;-83
2023/05/03 09:31:31;;;;;;;29.02;14.90;;;11.10;83.30;;;;;;4826066;29;20046;-83
2023/05/03 09:34:00;;;;;;;34.70;16.83;;;11.10;82.80;;;;;;4796033;29;20039;-83
2023/05/03 09:36:27;;;;;;;35.25;14.48;;;11.20;82.80;;;;;;4795909;29;20129;-82
2023/05/03 09:38:54;;;;;;;31.83;15.30;;;11.10;82.70;;;;;;4795932;29;20066;-84
2023/05/03 09:41:29;;;;;;;34.30;16.70;;;11.00;82.60;;;;;;4796155;29;20149;-83
2023/05/03 09:44:01;;;;;;;34.00;17.40;;;11.00;83.20;;;;;;4807963;29;20057;-84
2023/05/03 09:46:29;;;;;;;30.52;15.68;;;11.10;83.20;;;;;;4796144;29;20061;-82
2023/05/03 09:48:57;;;;;;;27.75;15.27;;;11.10;82.70;;;;;;4825836;29;20067;-83
2023/05/03 09:51:24;;;;;;;25.93;14.20;;;11.00;82.40;;;;;;4825769;29;20047;-82
2023/05/03 09:53:52;;;;;;;30.42;15.00;;;10.90;82.40;;;;;;4810978;29;20046;-83
2023/05/03 09:56:21;;;;;;;34.70;15.50;;;10.90;82.60;;;;;;4810324;29;20051;-83
2023/05/03 09:58:48;;;;;;;31.45;15.45;;;11.00;83.10;;;;;;4795722;29;20527;-82
2023/05/03 10:01:16;;;;;;;32.22;15.13;;;11.00;83.40;;;;;;4810418;29;20054;-83
2023/05/03 10:03:46;;;;;;;29.20;15.80;;;11.00;82.80;;;;;;4796810;29;20513;-83
2023/05/03 10:06:28;;;;;;;34.00;16.85;;;11.10;82.40;;;;;;4795464;29;20137;-83
2023/05/03 10:09:36;;;;;;;30.42;15.82;;;11.10;82.80;;;;;;4802080;29;20098;-83
2023/05/03 10:12:07;;;;;;;31.50;16.80;;;11.20;82.30;;;;;;4789683;29;20050;-82
2023/05/03 10:14:34;;;;;;;34.15;16.40;;;11.10;82.40;;;;;;4776438;30;20054;-82
2023/05/03 10:17:06;;;;;;;33.70;15.37;;;11.10;82.50;;;;;;4804268;29;20122;-83
2023/05/03 10:19:40;;;;;;;29.35;15.27;;;11.20;82.10;;;;;;4784951;30;20138;-82
2023/05/03 10:22:09;;;;;;;24.35;12.50;;;11.20;82.40;;;;;;4774273;30;20048;-83
2023/05/03 10:24:58;;;;;;;32.25;14.18;;;11.20;82.20;;;;;;4789177;29;20047;-83
2023/05/03 10:27:44;;;;;;;28.02;14.10;;;11.20;81.80;;;;;;4803949;29;20059;-83
2023/05/03 10:30:28;;;;;;;24.27;13.43;;;11.30;82.10;;;;;;4789057;30;20057;-83
2023/05/03 10:32:55;;;;;;;29.88;12.93;;;11.40;82.00;;;;;;4789003;29;20078;-82
2023/05/03 10:35:27;;;;;;;24.95;12.90;;;11.50;81.90;;;;;;4803658;29;20521;-84
2023/05/03 10:37:58;;;;;;;27.38;12.85;;;11.50;81.10;;;;;;4774106;30;20082;-83
2023/05/03 10:40:41;;;;;;;25.92;13.90;;;11.50;81.20;;;;;;4798770;29;20112;-83
2023/05/03 10:43:27;;;;;;;26.83;13.77;;;11.60;81.20;;;;;;4788755;29;20518;-83
2023/05/03 10:46:07;;;;;;;25.55;12.95;;;11.60;80.90;;;;;;4792604;29;20073;-83
2023/05/03 10:48:34;;;;;;;32.30;15.35;;;11.50;81.40;;;;;;4773835;30;20403;-84
2023/05/03 10:51:27;;;;;;;27.83;13.90;;;11.60;81.60;;;;;;4773937;30;20050;-82
2023/05/03 10:53:54;;;;;;;26.92;15.82;;;11.60;81.40;;;;;;4785957;29;20450;-83
2023/05/03 10:56:22;;;;;;;30.53;14.60;;;11.70;81.70;;;;;;4788412;30;20142;-82
2023/05/03 10:58:54;;;;;;;28.17;13.07;;;11.70;81.60;;;;;;4772039;30;20054;-83
2023/05/03 11:01:23;;;;;;;25.17;14.40;;;11.70;80.10;;;;;;4788332;30;20051;-83
2023/05/03 11:03:59;;;;;;;26.27;14.20;;;11.70;80.40;;;;;;4785170;29;20052;-83
2023/05/03 11:06:37;;;;;;;29.13;14.70;;;11.80;80.60;;;;;;4802249;29;20529;-83
2023/05/03 11:09:06;;;;;;;30.60;16.70;;;11.90;80.40;;;;;;4799801;29;20067;-83
2023/05/03 11:11:36;;;;;;;29.33;15.15;;;12.00;81.00;;;;;;4824691;29;20497;-83
2023/05/03 11:14:04;;;;;;;30.05;15.00;;;12.00;80.50;;;;;;4809126;29;20571;-83
2023/05/03 11:16:31;;;;;;;34.63;16.67;;;12.00;80.50;;;;;;4812354;29;20057;-83
2023/05/03 11:19:00;;;;;;;29.05;16.05;;;12.00;80.50;;;;;;4809208;29;20057;-83
2023/05/03 11:21:27;;;;;;;27.40;15.27;;;12.00;79.60;;;;;;4825662;29;20520;-83
2023/05/03 11:23:56;;;;;;;31.63;17.20;;;12.00;80.00;;;;;;4809263;29;20146;-83
2023/05/03 11:26:25;;;;;;;30.73;16.15;;;12.00;80.40;;;;;;4825251;29;20055;-83
2023/05/03 11:28:53;;;;;;;29.27;16.55;;;12.00;80.10;;;;;;4824198;29;20114;-84
2023/05/03 11:31:21;;;;;;;35.33;17.48;;;12.20;79.80;;;;;;4791053;29;20388;-82
2023/05/03 11:33:49;;;;;;;28.83;15.57;;;12.20;79.40;;;;;;4809669;29;20046;-82
2023/05/03 11:36:17;;;;;;;28.05;15.25;;;12.20;79.60;;;;;;4824071;29;20066;-81
2023/05/03 11:38:44;;;;;;;31.35;16.20;;;12.30;79.60;;;;;;4794107;29;20562;-83
2023/05/03 11:41:16;;;;;;;28.08;13.60;;;12.30;79.60;;;;;;4793805;29;20114;-83
2023/05/03 11:43:44;;;;;;;25.08;13.25;;;12.20;78.40;;;;;;4795619;29;20047;-83
2023/05/03 11:46:34;;;;;;;23.67;13.97;;;12.10;78.50;;;;;;4791552;29;20076;-82
2023/05/03 11:49:02;;;;;;;26.25;14.02;;;12.10;78.40;;;;;;4796530;29;20050;-82
2023/05/03 11:51:30;;;;;;;24.30;13.60;;;12.20;78.90;;;;;;4812443;29;20493;-83
2023/05/03 11:54:01;;;;;;;25.80;13.48;;;12.20;78.60;;;;;;4808721;29;20145;-82
2023/05/03 11:56:46;;;;;;;28.65;14.70;;;12.20;78.60;;;;;;4795831;29;20054;-83
2023/05/03 11:59:13;;;;;;;27.57;15.10;;;12.30;78.70;;;;;;4823600;29;20054;-83
2023/05/03 12:01:41;;;;;;;27.92;14.18;;;12.40;79.70;;;;;;4808564;29;20053;-83
2023/05/03 12:04:11;;;;;;;26.73;14.15;;;12.40;79.00;;;;;;4793631;29;20050;-82
2023/05/03 12:06:39;;;;;;;28.30;14.85;;;12.50;79.00;;;;;;4819575;29;20137;-83
2023/05/03 12:09:13;;;;;;;31.10;13.40;;;12.50;79.00;;;;;;4823469;29;20054;-83
2023/05/03 12:11:41;;;;;;;28.67;14.47;;;12.50;78.60;;;;;;4793614;29;20058;-82
2023/05/03 12:14:10;;;;;;;23.75;13.15;;;12.50;78.20;;;;;;4807471;29;20074;-82
2023/05/03 12:16:50;;;;;;;22.45;12.30;;;12.40;77.10;;;;;;4793241;29;20103;-82
2023/05/03 12:19:26;;;;;;;25.02;13.90;;;12.30;77.50;;;;;;4788303;29;20051;-82
2023/05/03 12:21:57;;;;;;;24.17;12.93;;;12.30;78.20;;;;;;4804342;29;20542;-83
2023/05/03 12:24:45;;;;;;;24.47;11.27;;;12.30;77.50;;;;;;4800450;29;20098;-82
2023/05/03 12:27:15;;;;;;;29.52;12.57;;;12.30;77.90;;;;;;4822475;29;20054;-83
2023/05/03 12:29:45;;;;;;;24.00;13.38;;;12.40;77.10;;;;;;4822809;29;20034;-83
2023/05/03 12:32:13;;;;;;;25.02;12.93;;;12.40;77.30;;;;;;4792860;29;20053;-83
2023/05/03 12:34:41;;;;;;;25.48;13.68;;;12.40;77.60;;;;;;4822913;29;20452;-83
2023/05/03 12:37:11;;;;;;;21.50;12.33;;;12.50;77.60;;;;;;4823015;29;20054;-83
2023/05/03 12:39:43;;;;;;;25.13;12.65;;;12.40;76.20;;;;;;4800088;29;20497;-83
2023/05/03 12:42:14;;;;;;;24.83;13.88;;;12.40;78.10;;;;;;4821348;29;20137;-82